createdAt,value
2018-09-13T00:00:17.745Z,55.53
2018-09-13T00:02:46.253Z,55.74
2018-09-13T00:05:14.612Z,55.53
2018-09-13T00:07:43.842Z,55.83
2018-09-13T00:10:12.224Z,55.67
2018-09-13T00:12:40.866Z,55.51
2018-09-13T00:15:09.233Z,55.60
2018-09-13T00:17:37.691Z,55.37
2018-09-13T00:20:06.344Z,55.31
2018-09-13T00:22:34.662Z,54.70
2018-09-13T00:25:03.017Z,54.56
2018-09-13T00:27:31.380Z,54.54
2018-09-13T00:29:59.711Z,54.52
2018-09-13T00:32:28.048Z,54.84
2018-09-13T00:34:56.467Z,54.54
2018-09-13T00:37:24.795Z,54.86
2018-09-13T00:39:53.124Z,54.80
2018-09-13T00:42:21.516Z,54.66
2018-09-13T00:44:50.218Z,54.82
2018-09-13T00:47:18.577Z,54.41
2018-09-13T00:49:47.049Z,54.77
2018-09-13T00:52:15.492Z,54.33
2018-09-13T00:54:43.811Z,54.36
2018-09-13T00:57:12.295Z,54.44
2018-09-13T00:59:40.673Z,54.50
2018-09-13T01:02:09.102Z,54.71
2018-09-13T01:04:37.513Z,54.26
2018-09-13T01:07:06.193Z,54.23
2018-09-13T01:09:34.661Z,54.66
2018-09-13T01:12:03.047Z,54.76
2018-09-13T01:14:31.599Z,54.41
2018-09-13T01:16:59.926Z,54.73
2018-09-13T01:19:28.332Z,54.56
2018-09-13T01:21:56.743Z,54.37
2018-09-13T01:24:25.103Z,54.42
2018-09-13T01:26:53.491Z,54.97
2018-09-13T01:29:21.820Z,54.95
2018-09-13T01:31:50.144Z,55.23
2018-09-13T01:34:18.812Z,55.20
2018-09-13T01:36:47.149Z,55.25
2018-09-13T01:39:15.548Z,54.91
2018-09-13T01:41:44.168Z,55.22
2018-09-13T01:44:12.548Z,55.27
2018-09-13T01:46:41.444Z,55.03
2018-09-13T01:49:09.820Z,55.12
2018-09-13T01:51:38.132Z,55.07
2018-09-13T01:54:06.930Z,55.16
2018-09-13T01:56:35.413Z,55.82
2018-09-13T01:59:03.952Z,55.80
2018-09-13T02:01:32.316Z,56.11
2018-09-13T02:04:00.800Z,56.54
2018-09-13T02:06:29.187Z,56.97
2018-09-13T02:08:57.560Z,57.21
2018-09-13T02:11:25.925Z,57.93
2018-09-13T02:13:54.337Z,58.53
2018-09-13T02:16:22.962Z,58.70
2018-09-13T02:18:51.375Z,58.67
2018-09-13T02:21:19.767Z,58.76
2018-09-13T02:23:48.094Z,58.36
2018-09-13T02:26:16.455Z,58.25
2018-09-13T02:28:44.844Z,58.89
2018-09-13T02:31:13.177Z,59.39
2018-09-13T02:33:41.867Z,60.07
2018-09-13T02:36:10.305Z,60.03
2018-09-13T02:38:38.740Z,60.56
2018-09-13T02:41:07.187Z,60.39
2018-09-13T02:43:36.527Z,61.05
2018-09-13T02:46:04.973Z,61.12
2018-09-13T02:48:33.331Z,61.66
2018-09-13T02:51:01.787Z,61.78
2018-09-13T02:53:30.122Z,61.81
2018-09-13T02:55:59.048Z,61.33
2018-09-13T02:58:27.811Z,61.29
2018-09-13T03:00:56.127Z,61.52
2018-09-13T03:03:24.601Z,61.69
2018-09-13T03:05:52.918Z,61.93
2018-09-13T03:08:21.321Z,62.23
2018-09-13T03:10:49.682Z,62.27
2018-09-13T03:13:18.132Z,62.50
2018-09-13T03:15:46.546Z,62.80
2018-09-13T03:18:15.066Z,63.18
2018-09-13T03:20:43.556Z,63.39
2018-09-13T03:23:11.987Z,63.54
2018-09-13T03:25:40.361Z,63.97
2018-09-13T03:28:08.770Z,63.88
2018-09-13T03:30:37.192Z,63.49
2018-09-13T03:33:05.729Z,63.52
2018-09-13T03:35:34.062Z,63.29
2018-09-13T03:38:02.389Z,63.81
2018-09-13T03:40:30.986Z,64.32
2018-09-13T03:42:59.548Z,64.96
2018-09-13T03:45:27.906Z,64.56
2018-09-13T03:47:56.335Z,64.24
2018-09-13T03:50:24.695Z,64.11
2018-09-13T03:52:53.283Z,63.80
2018-09-13T03:55:21.666Z,63.09
2018-09-13T03:57:50.013Z,62.70
2018-09-13T04:00:18.539Z,62.25
2018-09-13T04:02:47.068Z,61.60
2018-09-13T04:05:15.443Z,60.79
2018-09-13T04:07:43.823Z,60.65
2018-09-13T04:10:12.252Z,60.67
2018-09-13T04:12:40.677Z,60.28
2018-09-13T04:15:09.047Z,59.74
2018-09-13T04:17:37.941Z,59.80
2018-09-13T04:20:06.318Z,59.61
2018-09-13T04:22:34.678Z,59.10
2018-09-13T04:25:03.119Z,59.51
2018-09-13T04:27:31.569Z,58.90
2018-09-13T04:30:00.055Z,58.74
2018-09-13T04:32:28.459Z,59.02
2018-09-13T04:34:56.783Z,58.44
2018-09-13T04:37:25.119Z,58.47
2018-09-13T04:39:53.495Z,58.39
2018-09-13T04:42:22.020Z,58.73
2018-09-13T04:44:50.410Z,58.33
2018-09-13T04:47:18.868Z,58.42
2018-09-13T04:49:47.317Z,58.47
2018-09-13T04:52:15.867Z,58.50
2018-09-13T04:54:44.845Z,58.44
2018-09-13T04:57:13.197Z,58.32
2018-09-13T04:59:41.507Z,59.44
2018-09-13T05:02:09.925Z,59.99
2018-09-13T05:04:38.291Z,60.27
2018-09-13T05:07:06.768Z,59.84
2018-09-13T05:09:35.324Z,60.15
2018-09-13T05:12:03.723Z,59.65
2018-09-13T05:14:32.157Z,59.91
2018-09-13T05:17:00.615Z,60.13
2018-09-13T05:19:29.147Z,60.51
2018-09-13T05:21:57.623Z,60.25
2018-09-13T05:24:26.187Z,61.12
2018-09-13T05:26:54.601Z,61.42
2018-09-13T05:29:22.979Z,61.48
2018-09-13T05:31:51.379Z,61.20
2018-09-13T05:34:19.692Z,61.27
2018-09-13T05:36:48.128Z,61.57
2018-09-13T05:39:16.535Z,61.23
2018-09-13T05:41:44.993Z,60.99
2018-09-13T05:44:13.958Z,60.46
2018-09-13T05:46:42.387Z,60.57
2018-09-13T05:49:10.828Z,60.67
2018-09-13T05:51:39.507Z,60.66
2018-09-13T05:54:07.949Z,61.11
2018-09-13T05:56:36.364Z,60.94
2018-09-13T05:59:04.711Z,60.75
2018-09-13T06:01:33.127Z,60.98
2018-09-13T06:04:01.449Z,60.62
2018-09-13T06:06:29.875Z,60.42
2018-09-13T06:08:58.460Z,60.43
2018-09-13T06:11:26.856Z,60.75
2018-09-13T06:13:55.233Z,60.37
2018-09-13T06:16:23.796Z,60.44
2018-09-13T06:18:52.120Z,60.03
2018-09-13T06:21:20.448Z,60.30
2018-09-13T06:23:48.903Z,60.37
2018-09-13T06:26:17.312Z,60.00
2018-09-13T06:28:45.663Z,60.36
2018-09-13T06:31:14.132Z,60.29
2018-09-13T06:33:42.476Z,60.02
2018-09-13T06:36:10.824Z,60.29
2018-09-13T06:38:39.181Z,59.73
2018-09-13T06:41:07.582Z,59.93
2018-09-13T06:43:35.964Z,59.95
2018-09-13T06:46:04.362Z,59.91
2018-09-13T06:48:32.871Z,59.86
2018-09-13T06:51:01.215Z,59.72
2018-09-13T06:53:29.640Z,59.32
2018-09-13T06:55:57.989Z,59.20
2018-09-13T06:58:26.418Z,59.47
2018-09-13T07:00:54.930Z,59.17
2018-09-13T07:03:23.310Z,59.24
2018-09-13T07:05:51.680Z,58.77
2018-09-13T07:08:20.094Z,59.22
2018-09-13T07:10:48.500Z,58.60
2018-09-13T07:13:16.933Z,58.50
2018-09-13T07:15:45.358Z,58.84
2018-09-13T07:18:13.916Z,58.47
2018-09-13T07:20:43.397Z,58.39
2018-09-13T07:23:11.805Z,58.36
2018-09-13T07:25:40.368Z,58.48
2018-09-13T07:28:08.733Z,58.55
2018-09-13T07:30:37.110Z,57.94
2018-09-13T07:33:05.503Z,57.45
2018-09-13T07:35:33.889Z,57.17
2018-09-13T07:38:02.296Z,57.33
2018-09-13T07:40:30.713Z,56.93
2018-09-13T07:42:59.161Z,56.59
2018-09-13T07:45:27.542Z,56.77
2018-09-13T07:47:56.116Z,56.81
2018-09-13T07:50:24.599Z,56.61
2018-09-13T07:52:53.526Z,55.71
2018-09-13T07:55:21.958Z,55.67
2018-09-13T07:57:50.360Z,55.22
2018-09-13T08:00:18.806Z,55.30
2018-09-13T08:02:47.247Z,55.03
2018-09-13T08:05:15.631Z,55.32
2018-09-13T08:07:44.044Z,54.83
2018-09-13T08:10:12.400Z,54.98
2018-09-13T08:12:40.774Z,54.76
2018-09-13T08:15:09.179Z,54.61
2018-09-13T08:17:37.617Z,54.26
2018-09-13T08:20:06.061Z,54.13
2018-09-13T08:22:34.840Z,54.86
2018-09-13T08:25:03.271Z,54.81
2018-09-13T08:27:31.684Z,54.61
2018-09-13T08:30:00.300Z,54.61
2018-09-13T08:32:28.677Z,54.76
2018-09-13T08:34:58.854Z,54.43
2018-09-13T08:37:27.259Z,54.57
2018-09-13T08:39:55.792Z,55.03
2018-09-13T08:42:24.075Z,55.02
2018-09-13T08:44:52.643Z,54.36
2018-09-13T08:47:20.966Z,54.47
2018-09-13T08:49:49.315Z,54.16
2018-09-13T08:52:17.909Z,53.85
2018-09-13T08:54:46.343Z,54.00
2018-09-13T08:57:14.856Z,54.07
2018-09-13T08:59:43.620Z,54.03
2018-09-13T09:02:12.088Z,53.93
2018-09-13T09:04:40.519Z,54.29
2018-09-13T09:07:08.915Z,53.57
2018-09-13T09:09:37.377Z,53.66
2018-09-13T09:12:05.733Z,53.67
2018-09-13T09:14:34.083Z,53.41
2018-09-13T09:17:02.494Z,53.75
2018-09-13T09:19:30.934Z,52.83
2018-09-13T09:21:59.393Z,52.76
2018-09-13T09:24:27.873Z,52.49
2018-09-13T09:26:56.307Z,52.29
2018-09-13T09:29:24.824Z,51.96
2018-09-13T09:31:53.171Z,52.52
2018-09-13T09:34:21.509Z,52.17
2018-09-13T09:36:49.967Z,51.77
2018-09-13T09:39:18.372Z,51.43
2018-09-13T09:41:46.777Z,52.33
2018-09-13T09:44:15.286Z,51.56
2018-09-13T09:46:43.554Z,51.22
2018-09-13T09:49:11.928Z,51.27
2018-09-13T09:51:40.520Z,50.61
2018-09-13T09:54:08.894Z,51.52
2018-09-13T09:56:37.216Z,50.25
2018-09-13T09:59:05.648Z,49.63
2018-09-13T10:01:35.461Z,51.15
2018-09-13T10:04:04.112Z,50.55
2018-09-13T10:06:32.568Z,50.58
2018-09-13T10:09:00.962Z,50.53
2018-09-13T10:11:29.276Z,50.05
2018-09-13T10:13:57.744Z,49.97
2018-09-13T10:16:31.328Z,49.87
2018-09-13T10:20:04.973Z,49.68
2018-09-13T10:22:38.756Z,49.34
2018-09-13T10:25:13.483Z,49.03
2018-09-13T10:27:47.195Z,49.17
2018-09-13T10:30:20.840Z,49.67
2018-09-13T10:32:54.596Z,49.72
2018-09-13T10:35:28.315Z,49.82
2018-09-13T10:38:02.072Z,49.39
2018-09-13T10:40:35.931Z,49.31
2018-09-13T10:43:09.517Z,49.04
2018-09-13T10:45:43.284Z,48.87
2018-09-13T10:48:16.792Z,48.28
2018-09-13T10:50:50.774Z,47.47
2018-09-13T10:53:22.608Z,47.34
2018-09-13T10:55:51.020Z,46.75
2018-09-13T10:58:19.600Z,47.04
2018-09-13T11:00:48.098Z,46.92
2018-09-13T11:03:16.528Z,46.41
2018-09-13T11:05:45.050Z,46.32
2018-09-13T11:08:13.380Z,45.44
2018-09-13T11:10:41.984Z,45.76
2018-09-13T11:13:14.488Z,46.35
2018-09-13T11:15:42.816Z,45.57
2018-09-13T11:18:11.176Z,45.92
2018-09-13T11:20:39.608Z,45.39
2018-09-13T11:23:08.890Z,45.86
2018-09-13T11:25:37.301Z,45.32
2018-09-13T11:28:05.927Z,44.84
2018-09-13T11:30:34.326Z,44.96
2018-09-13T11:33:02.696Z,45.15
2018-09-13T11:35:31.126Z,44.24
2018-09-13T11:37:59.464Z,44.04
2018-09-13T11:40:28.028Z,44.13
2018-09-13T11:42:56.508Z,44.13
2018-09-13T11:45:24.934Z,43.55
2018-09-13T11:47:53.371Z,43.73
2018-09-13T11:50:21.808Z,43.46
2018-09-13T11:52:50.154Z,43.35
2018-09-13T11:55:18.613Z,43.42
2018-09-13T11:57:47.051Z,43.82
2018-09-13T12:00:15.563Z,44.74
2018-09-13T12:02:43.949Z,44.10
2018-09-13T12:05:12.438Z,43.14
2018-09-13T12:07:40.765Z,43.74
2018-09-13T12:10:09.095Z,43.75
2018-09-13T12:12:37.677Z,43.01
2018-09-13T12:15:07.276Z,43.66
2018-09-13T12:17:35.646Z,43.75
2018-09-13T12:20:04.115Z,43.77
2018-09-13T12:22:32.643Z,43.80
2018-09-13T12:25:01.005Z,43.60
2018-09-13T12:27:29.720Z,43.33
2018-09-13T12:29:57.984Z,42.53
2018-09-13T12:32:26.591Z,42.59
2018-09-13T12:34:54.943Z,41.61
2018-09-13T12:37:23.389Z,41.95
2018-09-13T12:39:51.881Z,42.45
2018-09-13T12:42:20.477Z,41.60
2018-09-13T12:44:48.818Z,42.21
2018-09-13T12:47:17.318Z,42.70
2018-09-13T12:49:45.765Z,43.26
2018-09-13T12:52:14.351Z,43.42
2018-09-13T12:54:43.023Z,43.74
2018-09-13T12:57:11.547Z,43.11
2018-09-13T12:59:40.099Z,43.34
2018-09-13T13:02:08.519Z,43.33
2018-09-13T13:04:37.197Z,43.63
2018-09-13T13:07:05.529Z,42.66
2018-09-13T13:09:34.075Z,42.64
2018-09-13T13:12:02.487Z,42.97
2018-09-13T13:14:30.968Z,43.19
2018-09-13T13:16:59.402Z,43.27
2018-09-13T13:19:27.902Z,42.88
2018-09-13T13:21:56.265Z,43.21
2018-09-13T13:24:24.633Z,42.87
2018-09-13T13:26:53.110Z,42.71
2018-09-13T13:29:21.653Z,42.61
2018-09-13T13:31:50.071Z,43.01
2018-09-13T13:34:18.475Z,42.19
2018-09-13T13:36:46.815Z,41.87
2018-09-13T13:39:15.320Z,42.04
2018-09-13T13:41:44.869Z,42.09
2018-09-13T13:44:13.216Z,41.24
2018-09-13T13:46:41.669Z,42.04
2018-09-13T13:49:10.231Z,41.85
2018-09-13T13:51:38.649Z,41.64
2018-09-13T13:54:07.017Z,41.58
2018-09-13T13:56:35.436Z,40.51
2018-09-13T13:59:03.873Z,40.99
2018-09-13T14:01:32.187Z,41.90
2018-09-13T14:04:00.674Z,41.07
2018-09-13T14:06:29.014Z,40.94
2018-09-13T14:08:57.349Z,41.11
2018-09-13T14:11:25.799Z,40.55
2018-09-13T14:13:54.205Z,39.94
2018-09-13T14:16:22.690Z,40.51
2018-09-13T14:18:51.152Z,40.74
2018-09-13T14:21:19.653Z,41.14
2018-09-13T14:23:48.022Z,40.66
2018-09-13T14:26:16.640Z,41.09
2018-09-13T14:28:44.982Z,40.18
2018-09-13T14:31:13.427Z,39.80
2018-09-13T14:33:42.283Z,39.69
2018-09-13T14:36:10.627Z,40.32
2018-09-13T14:38:39.070Z,40.49
2018-09-13T14:41:07.552Z,40.28
2018-09-13T14:43:36.011Z,40.18
2018-09-13T14:46:04.513Z,39.97
2018-09-13T14:48:32.808Z,40.19
2018-09-13T14:51:01.204Z,39.95
2018-09-13T14:53:29.547Z,39.89
2018-09-13T14:55:57.972Z,39.99
2018-09-13T14:58:26.396Z,40.10
2018-09-13T15:00:54.772Z,40.50
2018-09-13T15:03:23.201Z,40.26
2018-09-13T15:05:51.643Z,39.49
2018-09-13T15:08:20.131Z,38.92
2018-09-13T15:10:48.691Z,38.25
2018-09-13T15:13:17.080Z,38.06
2018-09-13T15:15:45.421Z,38.16
2018-09-13T15:18:13.885Z,38.47
2018-09-13T15:20:42.370Z,38.08
2018-09-13T15:23:10.723Z,37.61
2018-09-13T15:25:39.214Z,37.79
2018-09-13T15:28:07.650Z,37.80
2018-09-13T15:30:36.237Z,37.46
2018-09-13T15:33:06.146Z,37.76
2018-09-13T15:35:34.521Z,37.93
2018-09-13T15:38:02.852Z,38.23
2018-09-13T15:40:31.252Z,38.74
2018-09-13T15:42:59.655Z,39.91
2018-09-13T15:45:28.037Z,40.23
2018-09-13T15:47:56.608Z,40.78
2018-09-13T15:50:25.084Z,41.00
2018-09-13T15:52:53.615Z,41.30
2018-09-13T15:55:22.064Z,41.70
2018-09-13T15:57:51.288Z,41.93
2018-09-13T16:00:19.799Z,42.50
2018-09-13T16:02:48.323Z,42.92
2018-09-13T16:05:16.782Z,43.20
2018-09-13T16:07:45.464Z,42.92
2018-09-13T16:10:13.913Z,43.14
2018-09-13T16:12:42.376Z,43.14
2018-09-13T16:15:10.882Z,43.22
2018-09-13T16:17:39.260Z,43.44
2018-09-13T16:20:07.756Z,43.83
2018-09-13T16:22:36.332Z,43.63
2018-09-13T16:25:04.741Z,44.01
2018-09-13T16:27:33.144Z,44.29
2018-09-13T16:30:01.712Z,44.60
2018-09-13T16:32:30.248Z,44.77
2018-09-13T16:34:59.664Z,44.35
2018-09-13T16:37:33.572Z,45.04
2018-09-13T16:40:07.601Z,44.66
2018-09-13T16:42:43.114Z,45.14
2018-09-13T16:45:12.056Z,44.79
2018-09-13T16:47:45.976Z,45.36
2018-09-13T16:50:14.413Z,45.36
2018-09-13T16:52:42.817Z,45.21
2018-09-13T16:55:11.309Z,45.12
2018-09-13T16:57:39.686Z,45.67
2018-09-13T17:00:08.203Z,45.29
2018-09-13T17:02:36.601Z,45.21
2018-09-13T17:05:05.043Z,45.41
2018-09-13T17:07:33.521Z,45.47
2018-09-13T17:10:01.985Z,46.02
2018-09-13T17:12:30.421Z,46.15
2018-09-13T17:14:58.885Z,46.23
2018-09-13T17:17:33.967Z,46.32
2018-09-13T17:20:02.367Z,46.15
2018-09-13T17:22:30.738Z,46.18
2018-09-13T17:24:59.410Z,46.70
2018-09-13T17:27:27.731Z,47.00
2018-09-13T17:29:56.413Z,46.55
2018-09-13T17:32:24.827Z,46.62
2018-09-13T17:34:53.237Z,46.60
2018-09-13T17:37:21.637Z,46.74
2018-09-13T17:39:50.203Z,46.70
2018-09-13T17:42:18.657Z,47.32
2018-09-13T17:44:47.105Z,47.10
2018-09-13T17:47:15.747Z,47.51
2018-09-13T17:49:44.165Z,47.19
2018-09-13T17:52:12.513Z,47.33
2018-09-13T17:54:40.935Z,47.40
2018-09-13T17:57:09.473Z,47.44
2018-09-13T17:59:37.855Z,48.11
2018-09-13T18:02:06.868Z,47.94
2018-09-13T18:04:35.324Z,48.40
2018-09-13T18:07:05.096Z,47.79
2018-09-13T18:09:33.476Z,48.46
2018-09-13T18:12:01.860Z,49.76
2018-09-13T18:14:30.181Z,51.70
2018-09-13T18:16:58.744Z,51.75
2018-09-13T18:19:29.280Z,52.42
2018-09-13T18:21:57.806Z,52.91
2018-09-13T18:24:26.456Z,54.56
2018-09-13T18:26:54.772Z,54.86
2018-09-13T18:29:23.305Z,55.92
2018-09-13T18:31:51.761Z,55.49
2018-09-13T18:34:20.225Z,55.27
2018-09-13T18:36:48.661Z,55.41
2018-09-13T18:39:19.497Z,55.62
2018-09-13T18:41:48.596Z,56.26
2018-09-13T18:44:17.059Z,55.96
2018-09-13T18:46:45.759Z,56.49
2018-09-13T18:49:14.131Z,56.89
2018-09-13T18:51:44.188Z,56.24
2018-09-13T18:54:13.647Z,56.65
2018-09-13T18:56:42.084Z,56.64
2018-09-13T18:59:10.575Z,56.76
2018-09-13T19:01:39.043Z,57.01
2018-09-13T19:04:07.686Z,58.09
2018-09-13T19:06:36.071Z,58.41
2018-09-13T19:09:06.885Z,59.17
2018-09-13T19:11:35.341Z,59.80
2018-09-13T19:14:03.970Z,60.50
2018-09-13T19:16:32.853Z,61.22
2018-09-13T19:19:01.349Z,60.32
2018-09-13T19:21:29.787Z,60.78
2018-09-13T19:23:58.444Z,61.10
2018-09-13T19:26:26.911Z,61.67
2018-09-13T19:28:55.540Z,62.69
2018-09-13T19:31:23.910Z,63.00
2018-09-13T19:33:52.467Z,63.44
2018-09-13T19:36:22.145Z,63.12
2018-09-13T19:38:50.739Z,63.43
2018-09-13T19:41:19.729Z,63.69
2018-09-13T19:43:49.734Z,63.84
2018-09-13T19:46:18.244Z,64.08
2018-09-13T19:48:48.729Z,63.68
2018-09-13T19:51:17.145Z,64.31
2018-09-13T19:53:46.059Z,64.52
2018-09-13T19:56:14.545Z,64.35
2018-09-13T19:58:42.973Z,64.46
2018-09-13T20:01:14.266Z,64.43
2018-09-13T20:03:43.417Z,64.68
2018-09-13T20:06:12.786Z,65.25
2018-09-13T20:08:41.214Z,65.57
2018-09-13T20:11:09.643Z,65.47
2018-09-13T20:13:38.040Z,65.29
2018-09-13T20:16:06.685Z,64.87
2018-09-13T20:18:36.099Z,64.82
2018-09-13T20:21:04.500Z,64.72
2018-09-13T20:23:32.927Z,64.28
2018-09-13T20:26:01.376Z,65.29
2018-09-13T20:28:29.749Z,64.24
2018-09-13T20:30:58.167Z,64.11
2018-09-13T20:33:33.358Z,64.59
2018-09-13T20:36:02.144Z,64.48
2018-09-13T20:38:31.254Z,65.72
2018-09-13T20:40:59.785Z,65.59
2018-09-13T20:43:28.267Z,66.27
2018-09-13T20:45:56.891Z,66.25
2018-09-13T20:48:26.508Z,66.64
2018-09-13T20:50:55.053Z,65.31
2018-09-13T20:53:23.399Z,65.70
2018-09-13T20:55:51.897Z,65.57
2018-09-13T20:58:20.361Z,65.55
2018-09-13T21:00:48.958Z,64.99
2018-09-13T21:03:17.277Z,65.35
2018-09-13T21:05:45.647Z,65.74
2018-09-13T21:08:15.293Z,65.64
2018-09-13T21:10:44.037Z,65.51
2018-09-13T21:13:12.469Z,65.65
2018-09-13T21:15:41.023Z,65.99
2018-09-13T21:18:09.385Z,65.94
2018-09-13T21:20:37.737Z,65.50
2018-09-13T21:23:06.525Z,65.09
2018-09-13T21:25:35.018Z,65.33
2018-09-13T21:28:03.369Z,65.23
2018-09-13T21:30:31.903Z,65.37
2018-09-13T21:33:00.393Z,65.50
2018-09-13T21:35:29.377Z,65.97
2018-09-13T21:37:57.742Z,66.59
2018-09-13T21:40:26.877Z,66.79
2018-09-13T21:42:55.407Z,66.60
2018-09-13T21:45:23.719Z,66.34
2018-09-13T21:47:52.068Z,66.00
2018-09-13T21:50:20.519Z,66.55
2018-09-13T21:52:48.827Z,66.22
2018-09-13T21:55:17.147Z,67.03
2018-09-13T21:57:45.559Z,67.38
2018-09-13T22:00:13.947Z,67.18
2018-09-13T22:02:42.653Z,66.63
2018-09-13T22:05:11.056Z,67.51
2018-09-13T22:07:40.193Z,67.80
2018-09-13T22:10:08.652Z,68.03
2018-09-13T22:12:37.106Z,68.29
2018-09-13T22:15:05.492Z,68.11
2018-09-13T22:17:33.852Z,68.52
2018-09-13T22:20:02.343Z,68.23
2018-09-13T22:22:30.676Z,68.73
2018-09-13T22:24:59.664Z,68.72
2018-09-13T22:27:28.155Z,69.14
2018-09-13T22:29:56.552Z,68.81
2018-09-13T22:32:25.092Z,69.23
2018-09-13T22:34:53.554Z,68.83
2018-09-13T22:37:22.057Z,69.03
2018-09-13T22:39:50.540Z,68.99
2018-09-13T22:42:19.048Z,69.26
2018-09-13T22:44:47.365Z,68.85
2018-09-13T22:47:15.720Z,68.90
2018-09-13T22:49:44.220Z,68.80
2018-09-13T22:52:12.593Z,69.37
2018-09-13T22:54:41.316Z,69.37
2018-09-13T22:57:09.748Z,69.59
2018-09-13T22:59:38.109Z,69.72
2018-09-13T23:02:06.676Z,69.28
2018-09-13T23:04:35.047Z,69.24
2018-09-13T23:07:03.408Z,69.38
2018-09-13T23:09:31.853Z,69.78
2018-09-13T23:12:00.264Z,70.03
2018-09-13T23:14:28.596Z,69.85
2018-09-13T23:16:56.950Z,70.35
2018-09-13T23:19:25.515Z,70.44
2018-09-13T23:21:53.940Z,70.38
2018-09-13T23:24:22.533Z,70.46
2018-09-13T23:26:51.260Z,70.36
2018-09-13T23:29:19.720Z,69.62
2018-09-13T23:31:48.068Z,69.87
2018-09-13T23:34:17.938Z,69.79
2018-09-13T23:36:46.528Z,69.96
2018-09-13T23:39:15.010Z,70.10
2018-09-13T23:41:44.340Z,69.84
2018-09-13T23:44:12.696Z,69.84
2018-09-13T23:46:41.076Z,70.24
2018-09-13T23:49:09.598Z,70.24
2018-09-13T23:51:38.184Z,70.23
2018-09-13T23:54:06.660Z,70.21
2018-09-13T23:56:35.219Z,70.19
2018-09-13T23:59:03.649Z,70.02
